Time;durP1;ratioP1;P1;durP2;ratioP2;P2;SDS_P1;SDS_P2;PMS_P1;PMS_P2;Temp;Humidity;BMP_temperature;BMP_pressure;BME280_temperature;BME280_humidity;BME280_pressure;Samples;Min_cycle;Max_cycle;Signal;HPM_P1;HPM_P2
2022/09/15 00:01:39;;;;;;;13.50;9.40;;;;;;;;;;4985251;28;20072;-71
2022/09/15 00:04:05;;;;;;;19.92;10.80;;;;;;;;;;4983020;28;20031;-71
2022/09/15 00:06:32;;;;;;;16.23;10.68;;;;;;;;;;4988164;28;20053;-72
2022/09/15 00:08:58;;;;;;;16.10;10.38;;;;;;;;;;4968267;28;20110;-71
2022/09/15 00:11:34;;;;;;;13.80;10.07;;;;;;;;;;4969869;28;20507;-71
2022/09/15 00:14:01;;;;;;;16.65;10.93;;;;;;;;;;4983046;28;20037;-72
2022/09/15 00:16:29;;;;;;;16.27;10.48;;;;;;;;;;4969900;28;20119;-72
2022/09/15 00:18:55;;;;;;;17.90;10.50;;;;;;;;;;4968754;28;20038;-72
2022/09/15 00:21:23;;;;;;;13.73;9.60;;;;;;;;;;4984952;28;20483;-72
2022/09/15 00:23:49;;;;;;;15.63;11.05;;;;;;;;;;4986098;28;20023;-72
2022/09/15 00:26:17;;;;;;;18.80;11.27;;;;;;;;;;4985802;28;20460;-72
2022/09/15 00:28:43;;;;;;;17.13;10.85;;;;;;;;;;4984838;28;20106;-72
2022/09/15 00:31:10;;;;;;;18.88;10.25;;;;;;;;;;4984727;28;20030;-70
2022/09/15 00:33:37;;;;;;;14.73;9.98;;;;;;;;;;4984391;28;20030;-71
2022/09/15 00:36:04;;;;;;;15.25;9.43;;;;;;;;;;4984038;28;20471;-72
2022/09/15 00:38:30;;;;;;;16.77;9.40;;;;;;;;;;4969264;28;20486;-72
2022/09/15 00:40:57;;;;;;;16.35;9.13;;;;;;;;;;4986390;28;20038;-72
2022/09/15 00:43:41;;;;;;;15.02;9.60;;;;;;;;;;4987281;28;20038;-71
2022/09/15 00:46:08;;;;;;;23.65;9.88;;;;;;;;;;4986172;28;20038;-73
2022/09/15 00:48:35;;;;;;;14.32;9.95;;;;;;;;;;4985542;28;20026;-72
2022/09/15 00:51:02;;;;;;;17.40;10.25;;;;;;;;;;4987276;28;20125;-73
2022/09/15 00:53:29;;;;;;;16.52;10.10;;;;;;;;;;4985147;28;20026;-72
2022/09/15 00:55:56;;;;;;;16.25;10.70;;;;;;;;;;4968893;28;20560;-71
2022/09/15 00:58:28;;;;;;;17.30;9.95;;;;;;;;;;4965477;28;20500;-71
2022/09/15 01:00:56;;;;;;;20.25;10.05;;;;;;;;;;4985664;28;20555;-72
2022/09/15 01:03:26;;;;;;;16.98;9.60;;;;;;;;;;4983338;28;20030;-74
2022/09/15 01:05:54;;;;;;;15.68;10.60;;;;;;;;;;4982267;28;20293;-71
2022/09/15 01:08:33;;;;;;;17.10;12.10;;;;;;;;;;4985854;28;20019;-71
2022/09/15 01:10:59;;;;;;;22.88;13.10;;;;;;;;;;4985786;28;20038;-71
2022/09/15 01:13:25;;;;;;;30.52;14.88;;;;;;;;;;4983981;28;20169;-71
2022/09/15 01:15:51;;;;;;;23.27;14.70;;;;;;;;;;4986405;28;20684;-73
2022/09/15 01:18:20;;;;;;;23.58;14.30;;;;;;;;;;4984235;28;20140;-71
2022/09/15 01:20:50;;;;;;;26.48;13.77;;;;;;;;;;4969712;28;20027;-71
2022/09/15 01:23:15;;;;;;;26.35;14.95;;;;;;;;;;4985671;28;20038;-71
2022/09/15 01:26:01;;;;;;;20.95;13.68;;;;;;;;;;4985846;28;20030;-71
2022/09/15 01:28:39;;;;;;;17.00;11.25;;;;;;;;;;4983318;28;20049;-72
2022/09/15 01:31:10;;;;;;;19.63;12.43;;;;;;;;;;4968857;28;20030;-71
2022/09/15 01:33:36;;;;;;;20.55;9.63;;;;;;;;;;4981726;28;20050;-72
2022/09/15 01:36:05;;;;;;;15.73;9.45;;;;;;;;;;4986925;28;20545;-73
2022/09/15 01:38:46;;;;;;;19.85;9.52;;;;;;;;;;4967328;28;20080;-72
2022/09/15 01:41:31;;;;;;;13.95;7.45;;;;;;;;;;4983153;28;20133;-73
2022/09/15 01:44:04;;;;;;;8.68;4.43;;;;;;;;;;4984304;28;20061;-73
2022/09/15 01:46:32;;;;;;;7.35;4.07;;;;;;;;;;4985152;28;20493;-72
2022/09/15 01:48:59;;;;;;;12.13;3.72;;;;;;;;;;4982275;28;20038;-72
2022/09/15 01:51:26;;;;;;;10.30;2.70;;;;;;;;;;4985958;28;20100;-72
2022/09/15 01:53:53;;;;;;;9.07;2.88;;;;;;;;;;4984422;28;20112;-72
2022/09/15 01:56:19;;;;;;;7.70;3.38;;;;;;;;;;4986193;28;20049;-72
2022/09/15 01:58:45;;;;;;;12.73;3.15;;;;;;;;;;4984773;28;20030;-72
2022/09/15 02:01:13;;;;;;;10.75;2.63;;;;;;;;;;4989412;28;20038;-71
2022/09/15 02:03:49;;;;;;;11.10;2.90;;;;;;;;;;4986864;28;20499;-71
2022/09/15 02:06:21;;;;;;;9.65;3.00;;;;;;;;;;4987431;28;20560;-70
2022/09/15 02:08:51;;;;;;;7.68;2.67;;;;;;;;;;4985840;28;20780;-70
2022/09/15 02:11:19;;;;;;;10.32;3.88;;;;;;;;;;4989497;28;20038;-71
2022/09/15 02:14:10;;;;;;;15.18;3.28;;;;;;;;;;4966202;28;20125;-71
2022/09/15 02:16:38;;;;;;;9.20;2.35;;;;;;;;;;4988279;28;20228;-71
2022/09/15 02:19:07;;;;;;;7.32;2.17;;;;;;;;;;4985773;28;20483;-71
2022/09/15 02:21:39;;;;;;;11.80;2.42;;;;;;;;;;4990464;28;20021;-71
2022/09/15 02:24:08;;;;;;;8.82;2.20;;;;;;;;;;4987177;28;20080;-71
2022/09/15 02:26:35;;;;;;;8.63;2.38;;;;;;;;;;4988935;28;20101;-71
2022/09/15 02:29:04;;;;;;;10.43;2.63;;;;;;;;;;4986548;28;20054;-70
2022/09/15 02:31:31;;;;;;;14.93;2.95;;;;;;;;;;4986430;28;20057;-71
2022/09/15 02:34:00;;;;;;;12.82;2.42;;;;;;;;;;4985367;28;20061;-71
2022/09/15 02:36:27;;;;;;;9.77;3.10;;;;;;;;;;4988968;28;20302;-70
2022/09/15 02:38:59;;;;;;;12.82;3.35;;;;;;;;;;4984252;28;20132;-71
2022/09/15 02:41:26;;;;;;;9.52;2.45;;;;;;;;;;4987344;28;20065;-71
2022/09/15 02:43:52;;;;;;;13.27;2.63;;;;;;;;;;4987296;28;20026;-72
2022/09/15 02:46:19;;;;;;;10.73;2.47;;;;;;;;;;4987686;28;20528;-71
2022/09/15 02:48:46;;;;;;;13.48;2.40;;;;;;;;;;4981946;28;20526;-72
2022/09/15 02:51:13;;;;;;;12.63;2.40;;;;;;;;;;4987570;28;20026;-71
2022/09/15 02:53:39;;;;;;;8.85;2.10;;;;;;;;;;4985906;28;20507;-71
2022/09/15 02:56:05;;;;;;;7.97;2.60;;;;;;;;;;4987430;28;20036;-70
2022/09/15 02:58:31;;;;;;;8.32;2.40;;;;;;;;;;4987889;28;20050;-70
2022/09/15 03:00:57;;;;;;;9.63;2.80;;;;;;;;;;4988726;28;20042;-71
2022/09/15 03:03:23;;;;;;;6.00;1.90;;;;;;;;;;4946763;28;20039;-71
2022/09/15 03:05:49;;;;;;;7.22;2.25;;;;;;;;;;4987802;28;20058;-71
2022/09/15 03:08:15;;;;;;;13.25;2.17;;;;;;;;;;4990098;28;20344;-70
2022/09/15 03:10:41;;;;;;;7.45;2.05;;;;;;;;;;4989136;28;20125;-70
2022/09/15 03:13:07;;;;;;;12.30;1.90;;;;;;;;;;4991168;28;20519;-70
2022/09/15 03:15:34;;;;;;;5.90;2.10;;;;;;;;;;4968321;28;20038;-70
2022/09/15 03:18:01;;;;;;;9.95;2.05;;;;;;;;;;4988161;28;20057;-70
2022/09/15 03:20:27;;;;;;;7.38;2.22;;;;;;;;;;4986623;28;20033;-70
2022/09/15 03:22:53;;;;;;;15.82;2.40;;;;;;;;;;4986582;28;20488;-71
2022/09/15 03:25:20;;;;;;;14.05;3.25;;;;;;;;;;4988095;28;20113;-71
2022/09/15 03:27:46;;;;;;;12.43;2.60;;;;;;;;;;4987706;28;20037;-71
2022/09/15 03:30:13;;;;;;;8.18;2.20;;;;;;;;;;4987163;28;20035;-70
2022/09/15 03:32:39;;;;;;;10.73;2.25;;;;;;;;;;4985409;28;20026;-70
2022/09/15 03:35:06;;;;;;;7.97;1.90;;;;;;;;;;4985472;28;20030;-71
2022/09/15 03:37:32;;;;;;;7.78;1.70;;;;;;;;;;4986642;28;20133;-71
2022/09/15 03:39:58;;;;;;;10.02;1.70;;;;;;;;;;4986650;28;20122;-71
2022/09/15 03:42:24;;;;;;;8.98;1.90;;;;;;;;;;4955230;28;20037;-70
2022/09/15 03:44:50;;;;;;;7.93;1.80;;;;;;;;;;4986787;28;20026;-70
2022/09/15 03:47:16;;;;;;;6.93;1.42;;;;;;;;;;4988175;28;20117;-71
2022/09/15 03:49:42;;;;;;;6.68;1.80;;;;;;;;;;4965998;28;20045;-72
2022/09/15 03:52:08;;;;;;;9.65;2.05;;;;;;;;;;4985718;28;20084;-71
2022/09/15 03:54:34;;;;;;;9.45;1.92;;;;;;;;;;4985781;28;20135;-71
2022/09/15 03:57:00;;;;;;;9.52;1.83;;;;;;;;;;4987988;28;20038;-71
2022/09/15 03:59:26;;;;;;;13.98;1.67;;;;;;;;;;4985237;28;20139;-70
2022/09/15 04:01:52;;;;;;;9.38;1.73;;;;;;;;;;4968858;28;20122;-71
2022/09/15 04:04:18;;;;;;;13.07;2.22;;;;;;;;;;4985074;28;20034;-71
2022/09/15 04:06:45;;;;;;;7.72;1.58;;;;;;;;;;4986203;28;20042;-72
2022/09/15 04:09:11;;;;;;;11.38;1.70;;;;;;;;;;4982852;28;20113;-72
2022/09/15 04:11:38;;;;;;;9.90;1.85;;;;;;;;;;4987686;28;20030;-70
2022/09/15 04:14:04;;;;;;;9.05;1.88;;;;;;;;;;4985512;28;20057;-71
2022/09/15 04:16:30;;;;;;;8.45;2.00;;;;;;;;;;4986057;28;20088;-71
2022/09/15 04:18:56;;;;;;;11.73;2.13;;;;;;;;;;4967883;28;20504;-70
2022/09/15 04:21:24;;;;;;;9.57;2.03;;;;;;;;;;4986420;28;20065;-71
2022/09/15 04:23:50;;;;;;;11.95;1.65;;;;;;;;;;4983943;28;20122;-71
2022/09/15 04:26:20;;;;;;;8.93;1.17;;;;;;;;;;4985386;28;20551;-71
2022/09/15 04:28:46;;;;;;;7.75;1.40;;;;;;;;;;4984516;28;20104;-71
2022/09/15 04:31:13;;;;;;;15.85;2.28;;;;;;;;;;4986974;28;20034;-71
2022/09/15 04:33:40;;;;;;;8.07;1.48;;;;;;;;;;4984055;28;21589;-71
2022/09/15 04:36:08;;;;;;;10.77;1.70;;;;;;;;;;4964020;28;20141;-72
2022/09/15 04:38:37;;;;;;;6.75;1.50;;;;;;;;;;4963097;28;20031;-71
2022/09/15 04:41:04;;;;;;;8.75;1.67;;;;;;;;;;4985215;28;20022;-72
2022/09/15 04:43:30;;;;;;;7.38;1.35;;;;;;;;;;4985467;28;20034;-72
2022/09/15 04:45:57;;;;;;;8.32;1.30;;;;;;;;;;4986597;28;20045;-72
2022/09/15 04:48:23;;;;;;;8.98;1.60;;;;;;;;;;4985810;28;20088;-72
2022/09/15 04:50:49;;;;;;;11.88;1.88;;;;;;;;;;4985520;28;20026;-72
2022/09/15 04:53:16;;;;;;;10.75;1.15;;;;;;;;;;4967588;28;20492;-73
2022/09/15 04:55:42;;;;;;;10.52;1.85;;;;;;;;;;4983355;28;20527;-72
2022/09/15 04:58:09;;;;;;;11.50;1.63;;;;;;;;;;4982102;28;20030;-72
2022/09/15 05:00:43;;;;;;;8.73;1.52;;;;;;;;;;4985465;28;20022;-72
2022/09/15 05:03:10;;;;;;;15.77;2.30;;;;;;;;;;4985931;28;20038;-72
2022/09/15 05:05:36;;;;;;;6.68;1.73;;;;;;;;;;4985126;28;20150;-72
2022/09/15 05:08:03;;;;;;;8.40;1.65;;;;;;;;;;4985627;28;20026;-72
2022/09/15 05:10:29;;;;;;;5.45;1.83;;;;;;;;;;4982407;28;20030;-72
2022/09/15 05:12:55;;;;;;;14.38;2.45;;;;;;;;;;4984902;28;20046;-72
2022/09/15 05:15:21;;;;;;;8.25;1.42;;;;;;;;;;4981811;28;20106;-72
2022/09/15 05:17:48;;;;;;;9.15;1.50;;;;;;;;;;4983677;28;20503;-72
2022/09/15 05:20:14;;;;;;;12.23;2.30;;;;;;;;;;4968913;28;20034;-72
2022/09/15 05:22:40;;;;;;;8.95;1.88;;;;;;;;;;4985045;28;20033;-71
2022/09/15 05:25:06;;;;;;;10.73;1.65;;;;;;;;;;4978703;28;20030;-71
2022/09/15 05:27:33;;;;;;;11.05;1.85;;;;;;;;;;4983863;28;20082;-71
2022/09/15 05:29:59;;;;;;;10.10;2.53;;;;;;;;;;4964325;28;20054;-71
2022/09/15 05:32:25;;;;;;;9.88;1.85;;;;;;;;;;4985589;28;20031;-70
2022/09/15 05:34:51;;;;;;;7.28;1.85;;;;;;;;;;4990389;28;20022;-71
2022/09/15 05:37:18;;;;;;;7.90;1.63;;;;;;;;;;4991057;28;20041;-71
2022/09/15 05:39:44;;;;;;;8.98;1.50;;;;;;;;;;4991142;28;20014;-72
2022/09/15 05:42:10;;;;;;;9.07;1.85;;;;;;;;;;4992267;28;20042;-72
2022/09/15 05:44:36;;;;;;;9.88;1.83;;;;;;;;;;4990816;28;20042;-72
2022/09/15 05:47:03;;;;;;;9.70;1.50;;;;;;;;;;4976822;28;20035;-71
2022/09/15 05:49:29;;;;;;;8.05;1.52;;;;;;;;;;4986265;28;20038;-71
2022/09/15 05:51:55;;;;;;;12.48;1.58;;;;;;;;;;4987883;28;20041;-71
2022/09/15 05:54:21;;;;;;;10.13;2.13;;;;;;;;;;4990147;28;20058;-70
2022/09/15 05:56:47;;;;;;;8.43;1.40;;;;;;;;;;4989729;28;20045;-71
2022/09/15 05:59:13;;;;;;;8.95;1.50;;;;;;;;;;4988775;28;20027;-71
2022/09/15 06:01:39;;;;;;;10.13;1.83;;;;;;;;;;4991316;28;20034;-72
2022/09/15 06:04:05;;;;;;;9.38;1.33;;;;;;;;;;4984827;28;20038;-71
2022/09/15 06:06:32;;;;;;;9.27;1.55;;;;;;;;;;4970460;28;20590;-72
2022/09/15 06:08:59;;;;;;;10.48;1.67;;;;;;;;;;4986817;28;20506;-72
2022/09/15 06:11:28;;;;;;;14.90;2.95;;;;;;;;;;4989491;28;20022;-71
2022/09/15 06:13:55;;;;;;;10.15;2.58;;;;;;;;;;4971028;28;20101;-72
2022/09/15 06:16:22;;;;;;;7.93;1.98;;;;;;;;;;4985243;28;20486;-71
2022/09/15 06:18:49;;;;;;;6.97;1.27;;;;;;;;;;4989213;28;20488;-71
2022/09/15 06:21:22;;;;;;;11.90;1.77;;;;;;;;;;4987535;28;20462;-74
2022/09/15 06:23:55;;;;;;;7.05;1.92;;;;;;;;;;4969872;28;20044;-73
2022/09/15 06:26:21;;;;;;;9.70;1.85;;;;;;;;;;4992283;28;20068;-73
2022/09/15 06:28:48;;;;;;;9.98;2.17;;;;;;;;;;4974950;28;20088;-73
2022/09/15 06:31:15;;;;;;;11.15;1.83;;;;;;;;;;4975125;28;20480;-73
2022/09/15 06:33:42;;;;;;;7.50;1.65;;;;;;;;;;4992396;28;20034;-73
2022/09/15 06:36:10;;;;;;;6.80;1.50;;;;;;;;;;4991689;28;20038;-73
2022/09/15 06:38:36;;;;;;;10.52;2.33;;;;;;;;;;4992694;28;20274;-74
2022/09/15 06:41:02;;;;;;;8.90;1.55;;;;;;;;;;4992464;28;20026;-73
2022/09/15 06:43:29;;;;;;;12.18;1.48;;;;;;;;;;4991754;28;20506;-73
2022/09/15 06:46:01;;;;;;;10.75;2.58;;;;;;;;;;4973320;28;20169;-73
2022/09/15 06:48:27;;;;;;;9.77;1.73;;;;;;;;;;4992243;28;20107;-73
2022/09/15 06:50:54;;;;;;;9.73;1.92;;;;;;;;;;4992590;28;20035;-73
2022/09/15 06:53:20;;;;;;;10.43;1.77;;;;;;;;;;4991586;28;20538;-73
2022/09/15 06:55:46;;;;;;;13.68;2.25;;;;;;;;;;4992289;28;20130;-73
2022/09/15 06:58:12;;;;;;;12.10;2.13;;;;;;;;;;4958909;28;20035;-73
2022/09/15 07:00:38;;;;;;;14.77;1.88;;;;;;;;;;4992603;28;20089;-73
2022/09/15 07:03:04;;;;;;;10.68;2.05;;;;;;;;;;4992512;28;20034;-73
2022/09/15 07:05:31;;;;;;;11.57;1.75;;;;;;;;;;4974984;28;20168;-73
2022/09/15 07:07:57;;;;;;;14.57;1.88;;;;;;;;;;4991165;28;20034;-73
2022/09/15 07:10:23;;;;;;;10.98;1.60;;;;;;;;;;4992808;28;20092;-73
2022/09/15 07:12:49;;;;;;;16.95;1.95;;;;;;;;;;4974966;28;20034;-72
2022/09/15 07:15:15;;;;;;;7.82;1.58;;;;;;;;;;4992374;28;20049;-72
2022/09/15 07:17:41;;;;;;;8.70;1.80;;;;;;;;;;4974729;28;20042;-72
2022/09/15 07:20:08;;;;;;;8.95;1.75;;;;;;;;;;4992070;28;20042;-73
2022/09/15 07:22:34;;;;;;;10.43;1.60;;;;;;;;;;4977468;28;20543;-73
2022/09/15 07:25:00;;;;;;;12.75;2.00;;;;;;;;;;4972714;28;20031;-72
2022/09/15 07:27:30;;;;;;;4.97;1.27;;;;;;;;;;4972763;28;20050;-72
2022/09/15 07:29:56;;;;;;;10.55;1.50;;;;;;;;;;4971385;28;20030;-72
2022/09/15 07:32:22;;;;;;;18.30;1.98;;;;;;;;;;4971330;28;20038;-72
2022/09/15 07:34:48;;;;;;;7.97;1.45;;;;;;;;;;4972218;28;20484;-72
2022/09/15 07:37:15;;;;;;;15.18;1.50;;;;;;;;;;4954889;28;20039;-73
2022/09/15 07:39:41;;;;;;;12.10;2.38;;;;;;;;;;4972343;28;20026;-74
2022/09/15 07:42:07;;;;;;;10.07;1.40;;;;;;;;;;4954902;28;20038;-74
2022/09/15 07:44:33;;;;;;;7.07;1.40;;;;;;;;;;4972051;28;20041;-73
2022/09/15 07:46:59;;;;;;;7.05;1.42;;;;;;;;;;4972470;28;20034;-72
2022/09/15 07:49:25;;;;;;;10.20;1.60;;;;;;;;;;4972229;28;20030;-72
2022/09/15 07:51:51;;;;;;;8.32;1.65;;;;;;;;;;4972286;28;20031;-73
2022/09/15 07:54:17;;;;;;;6.25;1.17;;;;;;;;;;4972627;28;20051;-73
2022/09/15 07:56:43;;;;;;;14.93;2.42;;;;;;;;;;4971502;28;20034;-73
2022/09/15 07:59:09;;;;;;;7.32;1.48;;;;;;;;;;4971612;28;20023;-73
2022/09/15 08:01:35;;;;;;;9.05;2.03;;;;;;;;;;4955893;28;20318;-72
2022/09/15 08:04:01;;;;;;;9.63;1.40;;;;;;;;;;4976878;28;20030;-72
2022/09/15 08:06:27;;;;;;;9.65;1.20;;;;;;;;;;4991204;28;20034;-71
2022/09/15 08:08:55;;;;;;;9.18;1.25;;;;;;;;;;4990994;28;20030;-72
2022/09/15 08:11:21;;;;;;;7.47;1.20;;;;;;;;;;4991835;28;20078;-73
2022/09/15 08:13:48;;;;;;;16.52;2.00;;;;;;;;;;4992647;28;20026;-72
2022/09/15 08:16:15;;;;;;;8.77;1.50;;;;;;;;;;4992123;28;20045;-72
2022/09/15 08:18:42;;;;;;;7.88;1.50;;;;;;;;;;4977650;28;20022;-74
2022/09/15 08:21:10;;;;;;;8.80;1.70;;;;;;;;;;4993391;28;20034;-73
2022/09/15 08:23:37;;;;;;;13.18;1.98;;;;;;;;;;4996246;28;20034;-73
2022/09/15 08:26:07;;;;;;;18.35;3.38;;;;;;;;;;4995941;28;20109;-73
2022/09/15 08:28:33;;;;;;;6.15;1.33;;;;;;;;;;4992371;28;20100;-73
2022/09/15 08:31:04;;;;;;;13.20;1.67;;;;;;;;;;4975659;28;20030;-75
2022/09/15 08:33:30;;;;;;;;;;;;;;;;;;4996023;28;20127;-72
2022/09/15 08:36:00;;;;;;;10.43;1.85;;;;;;;;;;4978779;28;20473;-74
2022/09/15 08:38:26;;;;;;;9.25;1.30;;;;;;;;;;4994739;28;20037;-72
2022/09/15 08:40:56;;;;;;;7.80;1.35;;;;;;;;;;4977789;28;20034;-73
2022/09/15 08:43:24;;;;;;;9.93;1.65;;;;;;;;;;4993995;28;20074;-73
2022/09/15 08:45:56;;;;;;;7.88;1.50;;;;;;;;;;4992150;28;20464;-72
2022/09/15 08:48:25;;;;;;;10.65;2.22;;;;;;;;;;4992074;28;20507;-73
2022/09/15 08:50:53;;;;;;;8.88;1.85;;;;;;;;;;4991536;28;20027;-73
2022/09/15 08:53:26;;;;;;;8.88;1.40;;;;;;;;;;4991448;28;20113;-72
2022/09/15 08:55:54;;;;;;;10.55;1.65;;;;;;;;;;4991786;28;20039;-72
2022/09/15 08:58:22;;;;;;;5.38;1.05;;;;;;;;;;4991251;28;20042;-71
2022/09/15 09:00:52;;;;;;;8.05;1.20;;;;;;;;;;4989507;28;20042;-72
2022/09/15 09:03:18;;;;;;;4.28;1.15;;;;;;;;;;4991196;28;20116;-72
2022/09/15 09:06:02;;;;;;;6.55;1.20;;;;;;;;;;4990973;28;20113;-72
2022/09/15 09:08:40;;;;;;;6.25;1.48;;;;;;;;;;4976127;28;20125;-72
2022/09/15 09:11:42;;;;;;;13.35;1.73;;;;;;;;;;4994754;28;20023;-73
2022/09/15 09:14:34;;;;;;;5.78;1.35;;;;;;;;;;4894824;29;20119;-72
2022/09/15 09:17:00;;;;;;;7.38;1.25;;;;;;;;;;4962132;28;20107;-72
2022/09/15 09:19:41;;;;;;;7.57;1.38;;;;;;;;;;4994259;28;20115;-73
2022/09/15 09:22:13;;;;;;;8.18;1.52;;;;;;;;;;4993867;28;20113;-72
2022/09/15 09:24:46;;;;;;;10.32;1.30;;;;;;;;;;4994371;28;20030;-73
2022/09/15 09:27:13;;;;;;;5.68;1.05;;;;;;;;;;4994529;28;20040;-72
2022/09/15 09:29:41;;;;;;;5.35;1.00;;;;;;;;;;4993517;28;20108;-73
2022/09/15 09:32:17;;;;;;;6.05;1.20;;;;;;;;;;4994467;28;20057;-73
2022/09/15 09:34:46;;;;;;;10.52;1.30;;;;;;;;;;4994645;28;20507;-73
2022/09/15 09:37:14;;;;;;;5.32;1.40;;;;;;;;;;4994150;28;20030;-74
2022/09/15 09:39:40;;;;;;;4.97;1.15;;;;;;;;;;4994489;28;20052;-73
2022/09/15 09:42:07;;;;;;;6.93;1.27;;;;;;;;;;4994239;28;20041;-73
2022/09/15 09:44:34;;;;;;;8.45;1.38;;;;;;;;;;4993847;28;20076;-73
2022/09/15 09:47:00;;;;;;;6.15;1.20;;;;;;;;;;4993823;28;20030;-73
2022/09/15 09:49:33;;;;;;;6.70;1.25;;;;;;;;;;4976329;28;20038;-73
2022/09/15 09:52:01;;;;;;;5.65;1.10;;;;;;;;;;4993152;28;20533;-73
2022/09/15 09:54:28;;;;;;;6.10;1.40;;;;;;;;;;4993758;28;20061;-73
2022/09/15 09:56:55;;;;;;;5.57;1.08;;;;;;;;;;4993968;28;20031;-73
2022/09/15 09:59:39;;;;;;;4.22;1.05;;;;;;;;;;4992707;28;20081;-73
2022/09/15 10:02:14;;;;;;;9.85;2.08;;;;;;;;;;4993536;28;20049;-73
2022/09/15 10:04:47;;;;;;;7.85;1.33;;;;;;;;;;4976287;28;20037;-73
2022/09/15 10:07:14;;;;;;;9.73;1.17;;;;;;;;;;4975609;28;20480;-74
2022/09/15 10:09:48;;;;;;;7.00;1.23;;;;;;;;;;4993440;28;20109;-73
2022/09/15 10:12:18;;;;;;;8.00;1.38;;;;;;;;;;4975667;28;20403;-73
2022/09/15 10:14:50;;;;;;;8.30;1.20;;;;;;;;;;4992603;28;20030;-74
2022/09/15 10:17:18;;;;;;;9.10;1.88;;;;;;;;;;4992988;28;20041;-74
2022/09/15 10:19:47;;;;;;;8.63;1.35;;;;;;;;;;4992512;28;20033;-72
2022/09/15 10:22:21;;;;;;;7.22;1.10;;;;;;;;;;4993165;28;20118;-74
2022/09/15 10:24:49;;;;;;;9.02;1.73;;;;;;;;;;4993279;28;20484;-72
2022/09/15 10:27:20;;;;;;;7.90;1.40;;;;;;;;;;4990486;28;20034;-72
2022/09/15 10:29:46;;;;;;;6.95;1.10;;;;;;;;;;4991863;28;20109;-72
2022/09/15 10:32:25;;;;;;;7.97;1.42;;;;;;;;;;4993804;28;20076;-74
2022/09/15 10:35:10;;;;;;;8.45;1.52;;;;;;;;;;4993534;28;20105;-74
2022/09/15 10:37:55;;;;;;;11.07;1.52;;;;;;;;;;4993190;28;20080;-73
2022/09/15 10:40:29;;;;;;;8.50;1.40;;;;;;;;;;4993050;28;20471;-73
2022/09/15 10:43:14;;;;;;;13.93;1.42;;;;;;;;;;4968405;28;20121;-73
2022/09/15 10:45:45;;;;;;;8.27;1.08;;;;;;;;;;4975629;28;20077;-73
2022/09/15 10:48:40;;;;;;;9.68;1.55;;;;;;;;;;4993189;28;20033;-73
2022/09/15 10:51:10;;;;;;;13.18;1.20;;;;;;;;;;4956018;28;20045;-73
2022/09/15 10:53:55;;;;;;;8.27;1.45;;;;;;;;;;4993681;28;20038;-75
2022/09/15 10:56:39;;;;;;;5.00;1.33;;;;;;;;;;4995440;28;20049;-74
2022/09/15 10:59:05;;;;;;;7.00;1.20;;;;;;;;;;4977186;28;20032;-74
2022/09/15 11:01:31;;;;;;;8.02;1.42;;;;;;;;;;4993904;28;20042;-74
2022/09/15 11:03:59;;;;;;;10.15;1.50;;;;;;;;;;4994603;28;20084;-73
2022/09/15 11:06:43;;;;;;;6.10;1.30;;;;;;;;;;4994820;28;20027;-73
2022/09/15 11:09:29;;;;;;;7.63;1.50;;;;;;;;;;4994058;28;20027;-73
2022/09/15 11:11:55;;;;;;;9.90;1.60;;;;;;;;;;4994880;28;20048;-73
2022/09/15 11:14:21;;;;;;;10.57;1.58;;;;;;;;;;4995815;28;20041;-73
2022/09/15 11:17:05;;;;;;;10.48;1.20;;;;;;;;;;4993850;28;20041;-73
2022/09/15 11:19:31;;;;;;;7.45;1.08;;;;;;;;;;4977142;28;20121;-74
2022/09/15 11:22:08;;;;;;;6.18;1.30;;;;;;;;;;4994398;28;20429;-73
2022/09/15 11:24:47;;;;;;;7.07;1.23;;;;;;;;;;4994430;28;20058;-74
2022/09/15 11:27:20;;;;;;;11.25;2.75;;;;;;;;;;4993362;28;20022;-73
2022/09/15 11:29:46;;;;;;;5.75;1.10;;;;;;;;;;4959038;28;20097;-71
2022/09/15 11:32:17;;;;;;;5.32;1.00;;;;;;;;;;4993964;28;20026;-73
2022/09/15 11:34:53;;;;;;;5.75;0.95;;;;;;;;;;4995025;28;20101;-73
2022/09/15 11:37:23;;;;;;;6.22;0.90;;;;;;;;;;4976233;28;20464;-74
2022/09/15 11:39:58;;;;;;;3.97;0.90;;;;;;;;;;4993757;28;20105;-74
2022/09/15 11:42:32;;;;;;;3.75;0.85;;;;;;;;;;4994200;28;20022;-73
2022/09/15 11:44:58;;;;;;;4.28;0.80;;;;;;;;;;4993264;28;20049;-74
2022/09/15 11:47:30;;;;;;;4.65;1.00;;;;;;;;;;4975263;28;20472;-74
2022/09/15 11:50:15;;;;;;;4.53;0.80;;;;;;;;;;4992223;28;20484;-73
2022/09/15 11:52:53;;;;;;;3.78;0.82;;;;;;;;;;4992490;28;20030;-72
2022/09/15 11:55:25;;;;;;;4.55;0.95;;;;;;;;;;4981495;28;20534;-73
2022/09/15 11:58:06;;;;;;;5.88;0.90;;;;;;;;;;4986820;28;20026;-73
2022/09/15 12:00:34;;;;;;;7.10;0.80;;;;;;;;;;4987291;28;20427;-73
2022/09/15 12:03:09;;;;;;;7.40;1.00;;;;;;;;;;4990122;28;20037;-73
2022/09/15 12:05:40;;;;;;;5.60;0.80;;;;;;;;;;4990486;28;20073;-73
2022/09/15 12:08:20;;;;;;;6.28;1.13;;;;;;;;;;4990225;28;20498;-73
2022/09/15 12:10:51;;;;;;;4.13;1.00;;;;;;;;;;4990192;28;20101;-73
2022/09/15 12:13:18;;;;;;;6.93;1.15;;;;;;;;;;4989758;28;20133;-73
2022/09/15 12:15:47;;;;;;;18.73;3.25;;;;;;;;;;4985529;28;20030;-74
2022/09/15 12:18:33;;;;;;;7.13;1.05;;;;;;;;;;4987763;28;20030;-74
2022/09/15 12:21:02;;;;;;;5.90;1.40;;;;;;;;;;4986717;28;20041;-74
2022/09/15 12:23:40;;;;;;;9.63;1.25;;;;;;;;;;4986836;28;20026;-74
2022/09/15 12:26:13;;;;;;;6.15;1.40;;;;;;;;;;4987482;28;20033;-74
2022/09/15 12:28:39;;;;;;;7.85;1.23;;;;;;;;;;4985912;28;20030;-73
2022/09/15 12:31:26;;;;;;;11.07;1.30;;;;;;;;;;4986948;28;20048;-75
2022/09/15 12:34:02;;;;;;;7.22;1.20;;;;;;;;;;4984446;28;20034;-74
2022/09/15 12:36:39;;;;;;;10.55;1.30;;;;;;;;;;4979621;28;20034;-74
2022/09/15 12:39:19;;;;;;;3.20;1.00;;;;;;;;;;4981887;28;20034;-74
2022/09/15 12:41:47;;;;;;;4.35;0.85;;;;;;;;;;4980630;28;20019;-73
2022/09/15 12:44:22;;;;;;;4.32;1.00;;;;;;;;;;4980834;28;20031;-73
2022/09/15 12:46:50;;;;;;;8.45;1.30;;;;;;;;;;4979737;28;20134;-74
2022/09/15 12:49:18;;;;;;;6.00;1.30;;;;;;;;;;4978425;28;20492;-74
2022/09/15 12:51:48;;;;;;;7.78;1.00;;;;;;;;;;4978767;28;20096;-74
2022/09/15 12:54:21;;;;;;;9.75;1.40;;;;;;;;;;4975157;28;20070;-75
2022/09/15 12:56:51;;;;;;;8.43;1.52;;;;;;;;;;4977024;28;20035;-73
2022/09/15 12:59:24;;;;;;;8.73;1.45;;;;;;;;;;4980890;28;20030;-75
2022/09/15 13:01:51;;;;;;;13.27;1.95;;;;;;;;;;4981333;28;20037;-73
2022/09/15 13:04:36;;;;;;;9.82;1.63;;;;;;;;;;4985076;28;20035;-75
2022/09/15 13:07:14;;;;;;;9.98;1.77;;;;;;;;;;4966451;28;20038;-74
2022/09/15 13:09:57;;;;;;;11.25;2.30;;;;;;;;;;4983600;28;20033;-74
2022/09/15 13:12:25;;;;;;;10.63;1.60;;;;;;;;;;4978308;28;20027;-75
2022/09/15 13:14:53;;;;;;;11.90;1.45;;;;;;;;;;4984713;28;20101;-75
2022/09/15 13:17:21;;;;;;;13.35;1.60;;;;;;;;;;4986274;28;20030;-75
2022/09/15 13:19:49;;;;;;;10.23;1.20;;;;;;;;;;4984398;28;20011;-74
2022/09/15 13:22:29;;;;;;;8.25;1.55;;;;;;;;;;4980837;28;20045;-74
2022/09/15 13:25:04;;;;;;;7.68;1.25;;;;;;;;;;4984467;28;20074;-74
2022/09/15 13:27:41;;;;;;;9.20;1.30;;;;;;;;;;4983980;28;20026;-75
2022/09/15 13:30:07;;;;;;;8.95;1.70;;;;;;;;;;4977476;28;20053;-75
2022/09/15 13:32:38;;;;;;;6.15;1.15;;;;;;;;;;4983189;28;20018;-74
2022/09/15 13:35:05;;;;;;;10.95;1.70;;;;;;;;;;4985087;28;20057;-74
2022/09/15 13:37:45;;;;;;;9.32;1.00;;;;;;;;;;4964180;28;20113;-75
2022/09/15 13:40:26;;;;;;;7.55;1.65;;;;;;;;;;4982669;28;20026;-74
2022/09/15 13:43:07;;;;;;;5.68;1.10;;;;;;;;;;4977792;28;20118;-74
2022/09/15 13:45:32;;;;;;;;;;;;;;;;;;4982730;28;20037;-74
2022/09/15 13:48:18;;;;;;;6.45;1.10;;;;;;;;;;4982802;28;19910;-75
2022/09/15 13:50:54;;;;;;;8.30;1.30;;;;;;;;;;4981466;28;20027;-74
2022/09/15 13:53:44;;;;;;;8.30;1.30;;;;;;;;;;4983257;28;20092;-74
2022/09/15 13:56:13;;;;;;;6.93;1.10;;;;;;;;;;4980680;28;20523;-75
2022/09/15 13:58:41;;;;;;;8.10;1.30;;;;;;;;;;4986405;28;20037;-74
2022/09/15 14:01:10;;;;;;;10.00;1.60;;;;;;;;;;4986405;28;20030;-73
2022/09/15 14:03:40;;;;;;;5.57;1.10;;;;;;;;;;4988721;28;20033;-75
2022/09/15 14:06:25;;;;;;;9.90;1.55;;;;;;;;;;4962756;28;20411;-75
2022/09/15 14:08:53;;;;;;;5.85;1.00;;;;;;;;;;4984392;28;20109;-75
2022/09/15 14:11:29;;;;;;;5.82;1.15;;;;;;;;;;4990130;28;20026;-75
2022/09/15 14:13:57;;;;;;;4.43;1.15;;;;;;;;;;4990538;28;20045;-74
2022/09/15 14:16:26;;;;;;;5.82;1.00;;;;;;;;;;4988052;28;20039;-75
2022/09/15 14:18:53;;;;;;;4.80;1.20;;;;;;;;;;4987426;28;20030;-75
2022/09/15 14:21:24;;;;;;;6.68;1.10;;;;;;;;;;4986095;28;20023;-75
2022/09/15 14:23:51;;;;;;;8.98;1.30;;;;;;;;;;4984618;28;20489;-75
2022/09/15 14:26:19;;;;;;;9.38;1.55;;;;;;;;;;4969149;28;20411;-75
2022/09/15 14:28:49;;;;;;;9.18;1.95;;;;;;;;;;4983447;28;20030;-74
2022/09/15 14:31:16;;;;;;;5.53;1.17;;;;;;;;;;4987899;28;20034;-74
2022/09/15 14:33:42;;;;;;;10.73;1.13;;;;;;;;;;4981862;28;20030;-75
2022/09/15 14:36:12;;;;;;;5.25;0.80;;;;;;;;;;4988697;28;20503;-74
2022/09/15 14:38:38;;;;;;;4.78;0.88;;;;;;;;;;4991683;28;20038;-74
2022/09/15 14:41:04;;;;;;;7.10;1.10;;;;;;;;;;4992960;28;20030;-74
2022/09/15 14:43:34;;;;;;;9.75;1.70;;;;;;;;;;4991242;28;20037;-74
2022/09/15 14:46:20;;;;;;;11.60;1.40;;;;;;;;;;4990694;28;20128;-74
2022/09/15 14:48:46;;;;;;;9.32;1.33;;;;;;;;;;4990084;28;20058;-74
2022/09/15 14:51:24;;;;;;;6.07;1.15;;;;;;;;;;4975195;28;20116;-74
2022/09/15 14:53:52;;;;;;;8.30;1.17;;;;;;;;;;4992429;28;20133;-73